createdAt,value
2017-10-06T00:01:26.445Z,11.19
2017-10-06T00:03:54.778Z,11.10
2017-10-06T00:06:23.094Z,10.95
2017-10-06T00:08:51.423Z,10.92
2017-10-06T00:11:19.735Z,11.02
2017-10-06T00:13:48.077Z,11.03
2017-10-06T00:16:16.389Z,11.04
2017-10-06T00:18:44.708Z,11.07
2017-10-06T00:21:13.818Z,11.07
2017-10-06T00:23:42.890Z,11.06
2017-10-06T00:26:12.028Z,11.01
2017-10-06T00:28:40.333Z,10.93
2017-10-06T00:31:09.422Z,10.83
2017-10-06T00:33:37.776Z,10.77
2017-10-06T00:36:06.101Z,10.76
2017-10-06T00:38:34.458Z,10.79
2017-10-06T00:41:02.788Z,10.87
2017-10-06T00:43:31.865Z,10.89
2017-10-06T00:46:00.965Z,10.90
2017-10-06T00:48:30.051Z,10.90
2017-10-06T00:50:58.368Z,10.89
2017-10-06T00:53:26.686Z,10.97
2017-10-06T00:55:55.003Z,10.95
2017-10-06T00:58:24.089Z,10.98
2017-10-06T01:00:53.161Z,11.00
2017-10-06T01:03:21.475Z,11.07
2017-10-06T01:05:50.559Z,11.03
2017-10-06T01:08:19.674Z,11.06
2017-10-06T01:10:48.742Z,10.98
2017-10-06T01:13:17.850Z,11.00
2017-10-06T01:15:46.936Z,11.01
2017-10-06T01:18:16.019Z,11.01
2017-10-06T01:20:44.334Z,10.98
2017-10-06T01:23:12.639Z,11.01
2017-10-06T01:25:40.965Z,11.01
2017-10-06T01:28:10.044Z,11.03
2017-10-06T01:30:38.362Z,11.02
2017-10-06T01:33:06.673Z,11.03
2017-10-06T01:35:35.018Z,10.92
2017-10-06T01:38:03.327Z,10.94
2017-10-06T01:40:31.685Z,10.84
2017-10-06T01:43:00.007Z,10.88
2017-10-06T01:45:28.326Z,10.85
2017-10-06T01:47:56.645Z,10.85
2017-10-06T01:50:24.959Z,10.84
2017-10-06T01:52:54.042Z,10.78
2017-10-06T01:55:22.366Z,10.73
2017-10-06T01:57:50.697Z,10.77
2017-10-06T02:00:19.021Z,10.78
2017-10-06T02:02:47.350Z,10.75
2017-10-06T02:05:15.662Z,10.64
2017-10-06T02:07:43.982Z,10.54
2017-10-06T02:10:12.289Z,10.49
2017-10-06T02:12:40.635Z,10.54
2017-10-06T02:15:08.953Z,10.50
2017-10-06T02:17:38.082Z,10.55
2017-10-06T02:20:06.432Z,10.60
2017-10-06T02:22:35.521Z,10.62
2017-10-06T02:25:04.613Z,10.66
2017-10-06T02:27:33.708Z,10.64
2017-10-06T02:30:02.798Z,10.68
2017-10-06T02:32:31.123Z,10.69
2017-10-06T02:35:07.335Z,10.74
2017-10-06T02:37:35.645Z,10.79
2017-10-06T02:40:03.972Z,10.78
2017-10-06T02:42:32.297Z,10.85
2017-10-06T02:45:00.629Z,10.86
2017-10-06T02:47:28.957Z,10.80
2017-10-06T02:49:57.271Z,10.80
2017-10-06T02:52:25.598Z,10.84
2017-10-06T02:54:54.687Z,10.83
2017-10-06T02:57:23.773Z,10.84
2017-10-06T02:59:52.861Z,10.83
2017-10-06T03:02:21.203Z,10.87
2017-10-06T03:04:49.522Z,10.87
2017-10-06T03:07:17.827Z,10.89
2017-10-06T03:09:46.151Z,10.91
2017-10-06T03:12:14.470Z,10.89
2017-10-06T03:14:43.562Z,10.95
2017-10-06T03:17:12.700Z,10.93
2017-10-06T03:19:41.019Z,10.97
2017-10-06T03:22:09.321Z,10.89
2017-10-06T03:24:38.422Z,10.92
2017-10-06T03:27:06.717Z,10.88
2017-10-06T03:29:35.021Z,10.92
2017-10-06T03:32:03.350Z,10.85
2017-10-06T03:34:32.422Z,10.94
2017-10-06T03:37:00.739Z,10.88
2017-10-06T03:39:29.067Z,10.89
2017-10-06T03:41:57.377Z,10.87
2017-10-06T03:44:26.453Z,10.83
2017-10-06T03:46:54.796Z,10.80
2017-10-06T03:49:23.114Z,10.78
2017-10-06T03:51:52.197Z,10.77
2017-10-06T03:54:20.513Z,10.77
2017-10-06T03:56:48.830Z,10.76
2017-10-06T03:59:17.142Z,10.74
2017-10-06T04:01:46.222Z,10.68
2017-10-06T04:04:14.538Z,10.54
2017-10-06T04:06:42.851Z,10.62
2017-10-06T04:09:11.190Z,10.66
2017-10-06T04:11:39.513Z,10.69
2017-10-06T04:14:07.834Z,10.65
2017-10-06T04:16:36.159Z,10.70
2017-10-06T04:19:04.474Z,10.73
2017-10-06T04:21:32.811Z,10.73
2017-10-06T04:24:01.115Z,10.70
2017-10-06T04:26:30.221Z,10.71
2017-10-06T04:28:59.309Z,10.80
2017-10-06T04:31:27.632Z,10.86
2017-10-06T04:33:55.978Z,10.84
2017-10-06T04:36:25.087Z,10.79
2017-10-06T04:38:53.406Z,10.79
2017-10-06T04:41:21.721Z,10.80
2017-10-06T04:43:50.040Z,10.82
2017-10-06T04:46:18.357Z,10.79
2017-10-06T04:48:46.677Z,10.83
2017-10-06T04:51:14.989Z,10.85
2017-10-06T04:53:43.307Z,10.80
2017-10-06T04:56:11.654Z,10.83
2017-10-06T04:58:40.002Z,10.82
2017-10-06T05:01:08.350Z,10.86
2017-10-06T05:03:37.433Z,10.78
2017-10-06T05:06:05.772Z,10.66
2017-10-06T05:08:34.090Z,10.64
2017-10-06T05:11:02.413Z,10.70
2017-10-06T05:13:30.775Z,10.78
2017-10-06T05:15:59.105Z,10.83
2017-10-06T05:18:27.498Z,10.86
2017-10-06T05:20:55.857Z,10.93
2017-10-06T05:23:24.178Z,10.78
2017-10-06T05:25:53.254Z,10.72
2017-10-06T05:28:21.586Z,10.79
2017-10-06T05:30:49.912Z,10.84
2017-10-06T05:33:19.014Z,10.91
2017-10-06T05:35:48.095Z,10.83
2017-10-06T05:38:16.420Z,10.75
2017-10-06T05:40:44.731Z,10.70
2017-10-06T05:43:13.068Z,10.73
2017-10-06T05:45:41.379Z,10.84
2017-10-06T05:48:09.694Z,10.86
2017-10-06T05:50:38.790Z,10.84
2017-10-06T05:53:07.874Z,10.86
2017-10-06T05:55:36.194Z,10.89
2017-10-06T05:58:04.532Z,10.90
2017-10-06T06:00:32.858Z,10.92
2017-10-06T06:05:35.749Z,10.99
2017-10-06T06:08:04.054Z,11.07
2017-10-06T06:10:32.393Z,11.07
2017-10-06T06:13:00.726Z,10.99
2017-10-06T06:15:29.037Z,10.94
2017-10-06T06:17:58.130Z,10.88
2017-10-06T06:20:27.207Z,10.90
2017-10-06T06:22:55.535Z,10.87
2017-10-06T06:25:23.849Z,10.95
2017-10-06T06:27:52.162Z,10.87
2017-10-06T06:30:20.490Z,10.89
2017-10-06T06:32:48.836Z,10.95
2017-10-06T06:35:17.146Z,11.20
2017-10-06T06:37:45.450Z,11.25
2017-10-06T06:40:13.777Z,11.45
2017-10-06T06:42:42.095Z,11.48
2017-10-06T06:45:10.418Z,11.53
2017-10-06T06:47:38.731Z,11.68
2017-10-06T06:50:07.071Z,11.80
2017-10-06T06:52:35.382Z,11.77
2017-10-06T06:55:03.726Z,11.97
2017-10-06T06:57:32.037Z,12.02
2017-10-06T07:00:00.402Z,11.97
2017-10-06T07:02:28.718Z,11.80
2017-10-06T07:04:57.053Z,11.85
2017-10-06T07:07:25.384Z,12.15
2017-10-06T07:09:53.741Z,12.19
2017-10-06T07:12:22.047Z,12.33
2017-10-06T07:14:51.114Z,12.28
2017-10-06T07:17:19.437Z,12.60
2017-10-06T07:19:47.753Z,12.40
2017-10-06T07:22:16.105Z,12.31
2017-10-06T07:24:44.413Z,12.15
2017-10-06T07:27:12.720Z,12.22
2017-10-06T07:29:41.038Z,12.11
2017-10-06T07:32:09.905Z,12.28
2017-10-06T07:34:38.990Z,12.27
2017-10-06T07:37:08.056Z,12.18
2017-10-06T07:39:36.377Z,12.10
2017-10-06T07:42:05.449Z,12.02
2017-10-06T07:44:33.786Z,11.95
2017-10-06T07:47:02.106Z,12.14
2017-10-06T07:49:30.418Z,12.36
2017-10-06T07:51:58.733Z,12.27
2017-10-06T07:54:27.044Z,12.39
2017-10-06T07:56:56.130Z,12.65
2017-10-06T07:59:24.438Z,12.86
2017-10-06T08:01:52.756Z,12.57
2017-10-06T08:04:21.061Z,12.56
2017-10-06T08:06:49.417Z,12.42
2017-10-06T08:09:17.730Z,12.20
2017-10-06T08:11:46.805Z,12.20
2017-10-06T08:14:15.134Z,12.18
2017-10-06T08:16:43.440Z,12.29
2017-10-06T08:19:11.758Z,12.08
2017-10-06T08:21:40.834Z,12.19
2017-10-06T08:24:09.145Z,12.33
2017-10-06T08:26:38.227Z,12.50
2017-10-06T08:29:07.348Z,12.77
2017-10-06T08:31:35.650Z,12.95
2017-10-06T08:34:04.731Z,13.45
2017-10-06T08:36:33.062Z,13.87
2017-10-06T08:39:01.389Z,13.80
2017-10-06T08:41:29.701Z,13.54
2017-10-06T08:43:58.015Z,13.36
2017-10-06T08:46:27.110Z,13.60
2017-10-06T08:48:56.189Z,13.67
2017-10-06T08:51:25.295Z,14.03
2017-10-06T08:53:54.375Z,13.75
2017-10-06T08:56:22.682Z,13.92
2017-10-06T08:58:51.004Z,13.96
2017-10-06T09:01:19.353Z,13.91
2017-10-06T09:03:47.694Z,13.72
2017-10-06T09:06:16.013Z,13.61
2017-10-06T09:08:44.342Z,13.65
2017-10-06T09:11:13.418Z,13.77
2017-10-06T09:13:41.729Z,13.79
2017-10-06T09:16:10.794Z,13.93
2017-10-06T09:18:39.110Z,13.98
2017-10-06T09:21:07.430Z,14.22
2017-10-06T09:23:35.737Z,14.30
2017-10-06T09:26:04.058Z,13.78
2017-10-06T09:28:32.398Z,13.46
2017-10-06T09:31:01.489Z,13.24
2017-10-06T09:33:30.567Z,13.13
2017-10-06T09:35:58.902Z,13.12
2017-10-06T09:38:27.206Z,13.02
2017-10-06T09:40:55.540Z,13.17
2017-10-06T09:43:23.851Z,13.14
2017-10-06T09:45:52.153Z,13.34
2017-10-06T09:48:20.538Z,13.49
2017-10-06T09:50:48.852Z,13.43
2017-10-06T09:53:17.179Z,13.41
2017-10-06T09:55:45.494Z,13.38
2017-10-06T09:58:14.574Z,13.50
2017-10-06T10:00:42.901Z,13.71
2017-10-06T10:03:11.242Z,14.28
2017-10-06T10:05:40.310Z,14.06
2017-10-06T10:08:08.618Z,13.88
2017-10-06T10:10:37.708Z,13.73
2017-10-06T10:13:06.795Z,13.58
2017-10-06T10:15:35.882Z,13.70
2017-10-06T10:18:04.200Z,13.60
2017-10-06T10:20:32.513Z,13.40
2017-10-06T10:23:00.817Z,13.74
2017-10-06T10:25:29.162Z,13.65
2017-10-06T10:27:57.482Z,13.77
2017-10-06T10:30:26.568Z,14.87
2017-10-06T10:32:54.881Z,14.55
2017-10-06T10:35:23.198Z,14.97
2017-10-06T10:37:51.540Z,14.51
2017-10-06T10:40:19.872Z,14.15
2017-10-06T10:42:48.965Z,14.61
2017-10-06T10:45:17.284Z,14.61
2017-10-06T10:47:45.623Z,14.18
2017-10-06T10:50:13.947Z,14.28
2017-10-06T10:52:42.258Z,14.61
2017-10-06T10:55:10.588Z,14.18
2017-10-06T10:57:39.654Z,14.21
2017-10-06T11:00:07.978Z,14.92
2017-10-06T11:02:36.282Z,15.31
2017-10-06T11:05:04.598Z,15.42
2017-10-06T11:07:33.674Z,14.75
2017-10-06T11:10:02.003Z,15.10
2017-10-06T11:12:30.305Z,14.18
2017-10-06T11:14:58.642Z,14.51
2017-10-06T11:17:26.962Z,14.60
2017-10-06T11:19:55.270Z,14.38
2017-10-06T11:22:23.605Z,14.50
2017-10-06T11:24:51.923Z,15.12
2017-10-06T11:27:20.238Z,14.95
2017-10-06T11:29:48.554Z,15.12
2017-10-06T11:32:16.926Z,15.81
2017-10-06T11:34:45.234Z,15.46
2017-10-06T11:37:13.577Z,15.07
2017-10-06T11:39:41.895Z,14.58
2017-10-06T11:42:10.201Z,14.33
2017-10-06T11:44:38.525Z,14.36
2017-10-06T11:47:06.840Z,14.44
2017-10-06T11:49:35.936Z,14.19
2017-10-06T11:52:04.246Z,14.34
2017-10-06T11:54:32.576Z,14.58
2017-10-06T11:57:00.920Z,14.44
2017-10-06T11:59:29.834Z,14.24
2017-10-06T12:01:58.138Z,14.21
2017-10-06T12:04:27.246Z,14.47
2017-10-06T12:06:55.561Z,14.33
2017-10-06T12:09:23.869Z,13.67
2017-10-06T12:11:52.195Z,13.71
2017-10-06T12:14:20.515Z,13.62
2017-10-06T12:16:48.841Z,13.53
2017-10-06T12:19:17.143Z,13.56
2017-10-06T12:21:45.461Z,13.35
2017-10-06T12:24:13.779Z,13.53
2017-10-06T12:26:42.130Z,13.72
2017-10-06T12:29:11.254Z,13.92
2017-10-06T12:31:39.591Z,13.75
2017-10-06T12:34:07.914Z,13.72
2017-10-06T12:36:36.230Z,13.62
2017-10-06T12:39:04.571Z,13.67
2017-10-06T12:41:32.883Z,13.20
2017-10-06T12:44:01.193Z,13.07
2017-10-06T12:46:30.281Z,12.85
2017-10-06T12:48:59.403Z,12.51
2017-10-06T12:51:27.749Z,12.41
2017-10-06T12:53:56.834Z,12.34
2017-10-06T12:56:25.154Z,12.49
2017-10-06T12:58:53.469Z,12.77
2017-10-06T13:01:21.799Z,13.20
2017-10-06T13:03:50.101Z,13.29
2017-10-06T13:06:18.429Z,12.98
2017-10-06T13:08:46.742Z,13.31
2017-10-06T13:11:15.061Z,13.63
2017-10-06T13:13:43.369Z,13.62
2017-10-06T13:16:12.465Z,13.88
2017-10-06T13:18:42.533Z,13.70
2017-10-06T13:21:10.840Z,13.88
2017-10-06T13:23:39.154Z,14.03
2017-10-06T13:26:07.457Z,13.85
2017-10-06T13:28:35.774Z,14.01
2017-10-06T13:31:04.100Z,13.79
2017-10-06T13:33:32.426Z,14.16
2017-10-06T13:36:00.729Z,14.14
2017-10-06T13:38:29.802Z,14.31
2017-10-06T13:40:58.110Z,13.88
2017-10-06T13:43:26.421Z,13.70
2017-10-06T13:45:54.729Z,13.50
2017-10-06T13:48:23.139Z,13.36
2017-10-06T13:50:52.218Z,13.67
2017-10-06T13:53:20.533Z,13.31
2017-10-06T13:55:48.868Z,13.59
2017-10-06T13:58:17.170Z,13.80
2017-10-06T14:00:46.255Z,14.14
2017-10-06T14:03:15.332Z,13.59
2017-10-06T14:05:43.667Z,13.45
2017-10-06T14:08:11.982Z,13.69
2017-10-06T14:10:40.305Z,13.95
2017-10-06T14:13:08.645Z,13.85
2017-10-06T14:15:37.753Z,13.94
2017-10-06T14:18:06.834Z,13.91
2017-10-06T14:20:35.144Z,13.78
2017-10-06T14:23:03.458Z,13.81
2017-10-06T14:25:31.779Z,13.63
2017-10-06T14:28:00.865Z,13.56
2017-10-06T14:30:29.164Z,13.46
2017-10-06T14:32:57.518Z,13.18
2017-10-06T14:35:25.829Z,13.30
2017-10-06T14:37:54.184Z,13.72
2017-10-06T14:40:23.265Z,13.88
2017-10-06T14:42:51.578Z,14.32
2017-10-06T14:45:19.889Z,14.14
2017-10-06T14:47:48.201Z,14.17
2017-10-06T14:50:16.510Z,14.10
2017-10-06T14:52:44.841Z,13.87
2017-10-06T14:55:13.421Z,13.74
2017-10-06T14:57:41.726Z,13.91
2017-10-06T15:00:10.809Z,13.90
2017-10-06T15:02:39.106Z,13.97
2017-10-06T15:05:08.189Z,14.05
2017-10-06T15:07:36.489Z,13.82
2017-10-06T15:10:04.797Z,14.02
2017-10-06T15:12:33.363Z,14.32
2017-10-06T15:15:01.698Z,14.22
2017-10-06T15:17:30.029Z,14.37
2017-10-06T15:19:58.329Z,14.51
2017-10-06T15:22:26.682Z,14.23
2017-10-06T15:24:54.985Z,14.25
2017-10-06T15:27:23.301Z,14.07
2017-10-06T15:29:52.409Z,14.06
2017-10-06T15:32:20.722Z,13.77
2017-10-06T15:34:49.810Z,13.91
2017-10-06T15:37:18.149Z,13.58
2017-10-06T15:39:47.229Z,13.50
2017-10-06T15:42:15.534Z,13.65
2017-10-06T15:44:43.854Z,13.56
2017-10-06T15:47:12.938Z,13.31
2017-10-06T15:49:41.252Z,13.12
2017-10-06T15:52:09.554Z,12.98
2017-10-06T15:54:38.638Z,13.08
2017-10-06T15:57:07.707Z,13.01
2017-10-06T15:59:36.051Z,13.10
2017-10-06T16:02:04.354Z,13.17
2017-10-06T16:04:32.649Z,13.25
2017-10-06T16:07:01.002Z,13.19
2017-10-06T16:09:29.303Z,12.98
2017-10-06T16:11:57.626Z,12.78
2017-10-06T16:14:25.938Z,12.78
2017-10-06T16:16:54.259Z,12.69
2017-10-06T16:19:23.338Z,12.59
2017-10-06T16:21:51.645Z,12.47
2017-10-06T16:24:19.953Z,12.34
2017-10-06T16:26:48.317Z,12.25
2017-10-06T16:29:22.617Z,12.15
2017-10-06T16:31:50.942Z,12.11
2017-10-06T16:34:19.243Z,12.11
2017-10-06T16:36:48.557Z,12.03
2017-10-06T16:39:17.634Z,12.04
2017-10-06T16:41:45.933Z,11.98
2017-10-06T16:44:15.009Z,11.96
2017-10-06T16:46:44.090Z,11.90
2017-10-06T16:49:12.425Z,11.89
2017-10-06T16:51:40.729Z,11.85
2017-10-06T16:54:09.077Z,11.81
2017-10-06T16:56:38.130Z,11.80
2017-10-06T16:59:06.484Z,11.83
2017-10-06T17:01:34.799Z,11.78
2017-10-06T17:04:03.899Z,11.78
2017-10-06T17:06:32.974Z,11.72
2017-10-06T17:09:01.315Z,11.68
2017-10-06T17:11:29.622Z,11.64
2017-10-06T17:13:57.929Z,11.64
2017-10-06T17:16:27.010Z,11.65
2017-10-06T17:18:55.319Z,11.64
2017-10-06T17:21:23.642Z,11.64
2017-10-06T17:23:51.945Z,11.62
2017-10-06T17:26:21.023Z,11.59
2017-10-06T17:28:49.341Z,11.56
2017-10-06T17:31:17.656Z,11.56
2017-10-06T17:33:45.962Z,11.60
2017-10-06T17:36:14.262Z,11.57
2017-10-06T17:38:42.668Z,11.50
2017-10-06T17:41:10.973Z,11.55
2017-10-06T17:43:39.293Z,11.57
2017-10-06T17:46:07.645Z,11.54
2017-10-06T17:48:35.965Z,11.52
2017-10-06T17:51:04.269Z,11.47
2017-10-06T17:53:32.594Z,11.50
2017-10-06T17:56:01.666Z,11.50
2017-10-06T17:58:30.054Z,11.52
2017-10-06T18:00:58.366Z,11.49
2017-10-06T18:03:26.736Z,11.58
2017-10-06T18:05:55.048Z,11.59
2017-10-06T18:08:23.363Z,11.67
2017-10-06T18:10:52.468Z,11.66
2017-10-06T18:13:20.775Z,11.64
2017-10-06T18:15:49.102Z,11.62
2017-10-06T18:18:17.414Z,11.63
2017-10-06T18:20:46.501Z,11.63
2017-10-06T18:23:15.575Z,11.60
2017-10-06T18:25:43.897Z,11.62
2017-10-06T18:28:12.210Z,11.58
2017-10-06T18:30:40.544Z,11.56
2017-10-06T18:33:08.874Z,11.57
2017-10-06T18:35:37.184Z,11.58
2017-10-06T18:38:06.266Z,11.57
2017-10-06T18:40:34.569Z,11.52
2017-10-06T18:43:03.649Z,11.58
2017-10-06T18:45:32.726Z,11.63
2017-10-06T18:48:01.052Z,11.62
2017-10-06T18:50:29.349Z,11.57
2017-10-06T18:52:58.462Z,11.60
2017-10-06T18:55:26.784Z,11.54
2017-10-06T18:57:55.889Z,11.56
2017-10-06T19:00:24.198Z,11.53
2017-10-06T19:02:52.506Z,11.49
2017-10-06T19:05:20.830Z,11.50
2017-10-06T19:07:49.133Z,11.47
2017-10-06T19:10:17.464Z,11.39
2017-10-06T19:12:46.529Z,11.41
2017-10-06T19:15:14.849Z,11.39
2017-10-06T19:17:43.158Z,11.40
2017-10-06T19:20:11.474Z,11.42
2017-10-06T19:22:39.789Z,11.48
2017-10-06T19:25:08.139Z,11.46
2017-10-06T19:27:37.201Z,11.45
2017-10-06T19:30:05.526Z,11.49
2017-10-06T19:32:33.843Z,11.41
2017-10-06T19:35:02.162Z,11.37
2017-10-06T19:37:31.254Z,11.42
2017-10-06T19:39:59.573Z,11.34
2017-10-06T19:42:27.896Z,11.32
2017-10-06T19:44:56.202Z,11.30
2017-10-06T19:47:25.289Z,11.35
2017-10-06T19:49:54.374Z,11.25
2017-10-06T19:52:22.711Z,11.23
2017-10-06T19:54:51.018Z,11.21
2017-10-06T19:57:19.334Z,11.15
2017-10-06T19:59:47.662Z,11.15
2017-10-06T20:02:16.707Z,11.14
2017-10-06T20:04:45.066Z,11.20
2017-10-06T20:07:14.167Z,11.18
2017-10-06T20:09:42.485Z,11.14
2017-10-06T20:12:10.801Z,11.17
2017-10-06T20:14:39.131Z,11.17
2017-10-06T20:17:07.445Z,11.17
2017-10-06T20:19:35.783Z,11.15
2017-10-06T20:22:04.094Z,11.10
2017-10-06T20:24:32.398Z,11.07
2017-10-06T20:27:00.711Z,11.03
2017-10-06T20:29:29.018Z,11.00
2017-10-06T20:31:57.345Z,11.01
2017-10-06T20:34:26.411Z,10.93
2017-10-06T20:36:54.762Z,10.97
2017-10-06T20:39:23.066Z,10.88
2017-10-06T20:41:51.386Z,10.90
2017-10-06T20:44:19.686Z,10.88
2017-10-06T20:46:48.045Z,10.92
2017-10-06T20:49:16.349Z,10.91
2017-10-06T20:51:44.663Z,10.84
2017-10-06T20:54:12.973Z,10.87
2017-10-06T20:56:41.314Z,10.83
2017-10-06T20:59:09.622Z,10.83
2017-10-06T21:01:37.927Z,10.80
2017-10-06T21:04:06.248Z,10.79
2017-10-06T21:06:34.558Z,10.78
2017-10-06T21:09:02.870Z,10.80
2017-10-06T21:11:31.207Z,10.80
2017-10-06T21:13:59.530Z,10.79
2017-10-06T21:16:27.838Z,10.89
2017-10-06T21:18:56.925Z,10.82
2017-10-06T21:21:25.238Z,10.83
2017-10-06T21:23:53.550Z,10.80
2017-10-06T21:26:21.863Z,10.79
2017-10-06T21:28:51.781Z,10.72
2017-10-06T21:31:20.850Z,10.72
2017-10-06T21:33:49.154Z,10.73
2017-10-06T21:36:17.470Z,10.72
2017-10-06T21:38:45.783Z,10.72
2017-10-06T21:41:14.114Z,10.68
2017-10-06T21:43:42.423Z,10.74
2017-10-06T21:46:10.759Z,10.71
2017-10-06T21:48:39.837Z,10.73
2017-10-06T21:51:08.938Z,10.70
2017-10-06T21:53:38.011Z,10.66
2017-10-06T21:56:06.359Z,10.61
2017-10-06T21:58:34.671Z,10.61
2017-10-06T22:01:02.989Z,10.51
2017-10-06T22:03:31.331Z,10.49
2017-10-06T22:05:59.643Z,10.56
2017-10-06T22:08:27.979Z,10.51
2017-10-06T22:10:57.069Z,10.53
2017-10-06T22:13:25.390Z,10.62
2017-10-06T22:15:53.689Z,10.65
2017-10-06T22:18:22.010Z,10.62
2017-10-06T22:20:50.312Z,10.62
2017-10-06T22:23:18.642Z,10.66
2017-10-06T22:25:47.723Z,10.70
2017-10-06T22:28:16.057Z,10.71
2017-10-06T22:30:45.139Z,10.66
2017-10-06T22:33:13.442Z,10.68
2017-10-06T22:35:41.758Z,10.66
2017-10-06T22:38:10.837Z,10.73
2017-10-06T22:40:39.147Z,10.82
2017-10-06T22:43:07.473Z,10.93
2017-10-06T22:45:35.806Z,11.05
2017-10-06T22:48:04.115Z,11.12
2017-10-06T22:50:33.201Z,11.18
2017-10-06T22:53:01.493Z,11.25
2017-10-06T22:55:30.560Z,11.27
2017-10-06T22:57:58.862Z,11.32
2017-10-06T23:00:27.938Z,11.38
2017-10-06T23:02:56.269Z,11.36
2017-10-06T23:05:24.569Z,11.39
2017-10-06T23:07:52.876Z,11.38
2017-10-06T23:10:21.945Z,11.33
2017-10-06T23:12:50.256Z,11.28
2017-10-06T23:15:19.325Z,11.32
2017-10-06T23:17:47.648Z,11.41
2017-10-06T23:20:15.952Z,11.40
2017-10-06T23:22:44.264Z,11.44
2017-10-06T23:25:12.580Z,11.45
2017-10-06T23:27:40.932Z,11.51
2017-10-06T23:30:09.996Z,11.50
2017-10-06T23:32:38.292Z,11.45
2017-10-06T23:35:06.609Z,11.36
2017-10-06T23:37:34.919Z,11.27
2017-10-06T23:40:03.235Z,11.25
2017-10-06T23:42:32.317Z,11.23
2017-10-06T23:45:00.625Z,11.27
2017-10-06T23:47:28.934Z,11.31
2017-10-06T23:49:57.244Z,11.35
2017-10-06T23:52:25.542Z,11.38
2017-10-06T23:54:54.616Z,11.45
2017-10-06T23:57:22.918Z,11.48
2017-10-06T23:59:51.984Z,11.51
